sensor_id;sensor_type;location;lat;lon;timestamp;P1;durP1;ratioP1;P2;durP2;ratioP2
38248;SDS011;24045;51.138;17.126;2023-04-29T00:03:18;21.60;;;12.10;;
38248;SDS011;24045;51.138;17.126;2023-04-29T00:18:21;20.10;;;12.80;;
38248;SDS011;24045;51.138;17.126;2023-04-29T00:33:24;22.20;;;13.50;;
38248;SDS011;24045;51.138;17.126;2023-04-29T00:48:27;21.80;;;14.70;;
38248;SDS011;24045;51.138;17.126;2023-04-29T01:03:30;20.40;;;13.80;;
38248;SDS011;24045;51.138;17.126;2023-04-29T01:18:36;21.20;;;14.10;;
38248;SDS011;24045;51.138;17.126;2023-04-29T01:33:46;19.60;;;13.70;;
38248;SDS011;24045;51.138;17.126;2023-04-29T01:48:57;20.40;;;13.90;;
38248;SDS011;24045;51.138;17.126;2023-04-29T02:04:00;19.30;;;13.00;;
38248;SDS011;24045;51.138;17.126;2023-04-29T02:34:05;20.00;;;12.30;;
38248;SDS011;24045;51.138;17.126;2023-04-29T02:49:08;18.50;;;11.40;;
38248;SDS011;24045;51.138;17.126;2023-04-29T03:04:10;19.10;;;11.60;;
38248;SDS011;24045;51.138;17.126;2023-04-29T03:19:13;16.50;;;12.10;;
38248;SDS011;24045;51.138;17.126;2023-04-29T03:34:16;18.70;;;12.00;;
38248;SDS011;24045;51.138;17.126;2023-04-29T03:49:19;19.40;;;12.80;;
38248;SDS011;24045;51.138;17.126;2023-04-29T04:19:25;16.10;;;12.20;;
38248;SDS011;24045;51.138;17.126;2023-04-29T04:34:28;18.00;;;12.00;;
38248;SDS011;24045;51.138;17.126;2023-04-29T04:49:31;20.20;;;12.60;;
38248;SDS011;24045;51.138;17.126;2023-04-29T05:04:34;17.70;;;12.10;;
38248;SDS011;24045;51.138;17.126;2023-04-29T05:34:39;21.30;;;11.10;;
38248;SDS011;24045;51.138;17.126;2023-04-29T06:19:49;13.90;;;8.40;;
38248;SDS011;24045;51.138;17.126;2023-04-29T06:34:52;13.60;;;7.70;;
38248;SDS011;24045;51.138;17.126;2023-04-29T06:49:55;15.40;;;9.20;;
38248;SDS011;24045;51.138;17.126;2023-04-29T07:04:57;13.00;;;8.90;;
38248;SDS011;24045;51.138;17.126;2023-04-29T07:20:01;16.30;;;9.30;;
38248;SDS011;24045;51.138;17.126;2023-04-29T07:35:05;14.30;;;9.80;;
38248;SDS011;24045;51.138;17.126;2023-04-29T07:50:08;18.50;;;11.50;;
38248;SDS011;24045;51.138;17.126;2023-04-29T08:05:11;18.00;;;11.30;;
38248;SDS011;24045;51.138;17.126;2023-04-29T08:20:14;19.70;;;13.30;;
38248;SDS011;24045;51.138;17.126;2023-04-29T08:35:17;17.50;;;10.90;;
38248;SDS011;24045;51.138;17.126;2023-04-29T08:50:20;19.40;;;12.90;;
38248;SDS011;24045;51.138;17.126;2023-04-29T09:05:25;18.30;;;14.20;;
38248;SDS011;24045;51.138;17.126;2023-04-29T09:20:28;20.60;;;13.30;;
38248;SDS011;24045;51.138;17.126;2023-04-29T09:35:32;15.30;;;10.50;;
38248;SDS011;24045;51.138;17.126;2023-04-29T09:50:41;12.30;;;7.90;;
38248;SDS011;24045;51.138;17.126;2023-04-29T10:05:45;11.10;;;7.70;;
38248;SDS011;24045;51.138;17.126;2023-04-29T10:20:49;11.30;;;8.00;;
38248;SDS011;24045;51.138;17.126;2023-04-29T10:35:52;10.30;;;7.80;;
38248;SDS011;24045;51.138;17.126;2023-04-29T11:06:07;9.80;;;6.20;;
38248;SDS011;24045;51.138;17.126;2023-04-29T11:21:10;11.30;;;6.20;;
38248;SDS011;24045;51.138;17.126;2023-04-29T11:36:14;7.90;;;4.90;;
38248;SDS011;24045;51.138;17.126;2023-04-29T11:51:17;5.40;;;3.30;;
38248;SDS011;24045;51.138;17.126;2023-04-29T12:06:27;7.10;;;3.60;;
38248;SDS011;24045;51.138;17.126;2023-04-29T12:21:32;5.80;;;3.80;;
38248;SDS011;24045;51.138;17.126;2023-04-29T12:36:35;7.70;;;4.00;;
38248;SDS011;24045;51.138;17.126;2023-04-29T12:51:39;6.80;;;4.30;;
38248;SDS011;24045;51.138;17.126;2023-04-29T13:06:42;9.80;;;6.50;;
38248;SDS011;24045;51.138;17.126;2023-04-29T13:21:44;7.30;;;3.70;;
38248;SDS011;24045;51.138;17.126;2023-04-29T13:36:48;7.90;;;3.60;;
38248;SDS011;24045;51.138;17.126;2023-04-29T13:51:51;5.30;;;2.50;;
38248;SDS011;24045;51.138;17.126;2023-04-29T14:06:56;4.20;;;2.50;;
38248;SDS011;24045;51.138;17.126;2023-04-29T14:21:59;4.70;;;2.80;;
38248;SDS011;24045;51.138;17.126;2023-04-29T14:37:02;5.50;;;3.00;;
38248;SDS011;24045;51.138;17.126;2023-04-29T14:52:04;6.40;;;3.70;;
38248;SDS011;24045;51.138;17.126;2023-04-29T15:07:07;7.70;;;3.80;;
38248;SDS011;24045;51.138;17.126;2023-04-29T15:22:10;9.70;;;3.30;;
38248;SDS011;24045;51.138;17.126;2023-04-29T15:37:14;8.30;;;3.20;;
38248;SDS011;24045;51.138;17.126;2023-04-29T15:52:17;10.30;;;5.90;;
38248;SDS011;24045;51.138;17.126;2023-04-29T16:07:19;12.20;;;7.70;;
38248;SDS011;24045;51.138;17.126;2023-04-29T17:07:30;12.90;;;9.50;;
38248;SDS011;24045;51.138;17.126;2023-04-29T17:22:33;11.20;;;8.90;;
38248;SDS011;24045;51.138;17.126;2023-04-29T17:37:35;10.40;;;7.00;;
38248;SDS011;24045;51.138;17.126;2023-04-29T18:22:43;11.20;;;8.00;;
38248;SDS011;24045;51.138;17.126;2023-04-29T18:37:48;13.80;;;10.10;;
38248;SDS011;24045;51.138;17.126;2023-04-29T18:52:50;25.80;;;20.40;;
38248;SDS011;24045;51.138;17.126;2023-04-29T19:07:53;34.70;;;24.10;;
38248;SDS011;24045;51.138;17.126;2023-04-29T19:22:56;33.10;;;26.20;;
38248;SDS011;24045;51.138;17.126;2023-04-29T19:37:59;34.70;;;26.10;;
38248;SDS011;24045;51.138;17.126;2023-04-29T20:08:04;37.20;;;28.90;;
38248;SDS011;24045;51.138;17.126;2023-04-29T20:23:08;38.00;;;28.50;;
38248;SDS011;24045;51.138;17.126;2023-04-29T20:38:11;37.80;;;29.80;;
38248;SDS011;24045;51.138;17.126;2023-04-29T21:23:46;24.20;;;19.00;;
38248;SDS011;24045;51.138;17.126;2023-04-29T21:38:49;29.60;;;19.10;;
38248;SDS011;24045;51.138;17.126;2023-04-29T21:53:54;26.10;;;19.20;;
38248;SDS011;24045;51.138;17.126;2023-04-29T22:08:57;25.90;;;17.90;;
38248;SDS011;24045;51.138;17.126;2023-04-29T22:23:59;23.90;;;17.30;;
38248;SDS011;24045;51.138;17.126;2023-04-29T22:54:05;21.80;;;16.20;;
38248;SDS011;24045;51.138;17.126;2023-04-29T23:09:08;18.50;;;14.10;;
38248;SDS011;24045;51.138;17.126;2023-04-29T23:24:11;16.30;;;12.70;;
38248;SDS011;24045;51.138;17.126;2023-04-29T23:39:14;20.70;;;14.70;;
38248;SDS011;24045;51.138;17.126;2023-04-29T23:54:17;19.70;;;14.80;;
